createdAt,value
2024-02-11T00:00:25.024Z,88.50
2024-02-11T00:03:12.677Z,88.60
2024-02-11T00:06:02.901Z,88.40
2024-02-11T00:08:52.903Z,87.90
2024-02-11T00:11:40.180Z,87.10
2024-02-11T00:14:30.638Z,86.60
2024-02-11T00:17:18.531Z,86.30
2024-02-11T00:20:15.693Z,85.40
2024-02-11T00:23:05.776Z,85.20
2024-02-11T00:25:55.878Z,84.70
2024-02-11T00:28:44.030Z,84.80
2024-02-11T00:31:31.491Z,84.00
2024-02-11T00:34:19.386Z,83.60
2024-02-11T00:37:11.619Z,83.80
2024-02-11T00:40:00.711Z,83.50
2024-02-11T00:42:48.531Z,82.80
2024-02-11T00:45:37.063Z,82.80
2024-02-11T00:48:25.181Z,82.60
2024-02-11T00:51:12.608Z,82.60
2024-02-11T00:54:01.230Z,83.50
2024-02-11T00:56:57.205Z,82.50
2024-02-11T00:59:44.496Z,82.30
2024-02-11T01:02:32.694Z,82.10
2024-02-11T01:05:20.810Z,82.80
2024-02-11T01:08:08.725Z,82.40
2024-02-11T01:10:56.311Z,82.70
2024-02-11T01:13:45.272Z,83.40
2024-02-11T01:16:32.661Z,83.80
2024-02-11T01:19:20.371Z,83.80
2024-02-11T01:22:07.638Z,84.40
2024-02-11T01:24:55.422Z,85.10
2024-02-11T01:27:42.686Z,85.60
2024-02-11T01:30:31.794Z,85.80
2024-02-11T01:33:19.189Z,86.20
2024-02-11T01:36:06.983Z,86.70
2024-02-11T01:38:54.322Z,86.50
2024-02-11T01:41:42.188Z,87.30
2024-02-11T01:44:29.889Z,87.30
2024-02-11T01:47:19.488Z,87.50
2024-02-11T01:50:10.412Z,87.70
2024-02-11T01:52:59.424Z,88.00
2024-02-11T01:55:47.247Z,88.30
2024-02-11T01:58:35.709Z,88.50
2024-02-11T02:01:26.209Z,88.50
2024-02-11T02:04:16.368Z,88.60
2024-02-11T02:07:04.472Z,89.00
2024-02-11T02:09:53.287Z,89.30
2024-02-11T02:12:44.154Z,89.80
2024-02-11T02:15:31.711Z,90.00
2024-02-11T02:18:19.348Z,90.00
2024-02-11T02:21:08.329Z,90.70
2024-02-11T02:23:57.744Z,91.00
2024-02-11T02:26:45.282Z,91.70
2024-02-11T02:29:33.057Z,91.80
2024-02-11T02:32:20.401Z,92.50
2024-02-11T02:35:08.936Z,93.00
2024-02-11T02:37:56.530Z,93.70
2024-02-11T02:40:46.551Z,94.70
2024-02-11T02:43:35.201Z,94.70
2024-02-11T02:46:23.149Z,95.80
2024-02-11T02:49:10.440Z,96.80
2024-02-11T02:51:59.296Z,98.20
2024-02-11T02:54:47.274Z,98.50
2024-02-11T02:57:36.743Z,99.40
2024-02-11T03:00:25.090Z,100.00
2024-02-11T03:03:12.864Z,100.00
2024-02-11T03:06:00.718Z,100.00
2024-02-11T03:08:49.175Z,100.00
2024-02-11T03:11:38.839Z,100.00
2024-02-11T03:14:28.078Z,100.00
2024-02-11T03:17:15.513Z,100.00
2024-02-11T03:20:04.409Z,100.00
2024-02-11T03:22:53.961Z,100.00
2024-02-11T03:25:42.407Z,100.00
2024-02-11T03:28:29.834Z,100.00
2024-02-11T03:31:18.677Z,100.00
2024-02-11T03:34:06.388Z,100.00
2024-02-11T03:36:54.326Z,100.00
2024-02-11T03:39:41.657Z,100.00
2024-02-11T03:42:28.939Z,100.00
2024-02-11T03:45:19.136Z,100.00
2024-02-11T03:48:08.950Z,100.00
2024-02-11T03:50:56.821Z,100.00
2024-02-11T03:53:45.537Z,100.00
2024-02-11T03:56:35.627Z,100.00
2024-02-11T03:59:23.862Z,100.00
2024-02-11T04:02:12.141Z,100.00
2024-02-11T04:05:01.143Z,100.00
2024-02-11T04:07:49.001Z,100.00
2024-02-11T04:10:38.047Z,100.00
2024-02-11T04:13:28.050Z,100.00
2024-02-11T04:16:18.477Z,100.00
2024-02-11T04:19:07.645Z,100.00
2024-02-11T04:21:56.288Z,100.00
2024-02-11T04:24:47.013Z,100.00
2024-02-11T04:27:37.464Z,100.00
2024-02-11T04:30:29.532Z,100.00
2024-02-11T04:33:21.782Z,100.00
2024-02-11T04:36:13.285Z,100.00
2024-02-11T04:39:08.496Z,100.00
2024-02-11T04:41:57.001Z,100.00
2024-02-11T04:44:44.309Z,100.00
2024-02-11T04:47:32.074Z,100.00
2024-02-11T04:50:22.731Z,100.00
2024-02-11T04:53:10.891Z,100.00
2024-02-11T04:56:00.184Z,100.00
2024-02-11T04:58:47.505Z,100.00
2024-02-11T05:01:35.771Z,100.00
2024-02-11T05:04:23.061Z,100.00
2024-02-11T05:07:10.859Z,100.00
2024-02-11T05:09:58.150Z,100.00
2024-02-11T05:12:49.141Z,100.00
2024-02-11T05:15:38.649Z,100.00
2024-02-11T05:18:28.682Z,100.00
2024-02-11T05:21:15.915Z,100.00
2024-02-11T05:24:03.823Z,100.00
2024-02-11T05:26:51.527Z,100.00
2024-02-11T05:29:40.439Z,100.00
2024-02-11T05:32:28.083Z,100.00
2024-02-11T05:35:18.443Z,100.00
2024-02-11T05:38:08.061Z,100.00
2024-02-11T05:40:59.885Z,100.00
2024-02-11T05:43:47.761Z,100.00
2024-02-11T05:46:36.632Z,100.00
2024-02-11T05:49:24.219Z,100.00
2024-02-11T05:52:11.745Z,100.00
2024-02-11T05:54:59.061Z,100.00
2024-02-11T05:57:48.014Z,100.00
2024-02-11T06:00:37.652Z,100.00
2024-02-11T06:03:27.023Z,100.00
2024-02-11T06:06:14.762Z,100.00
2024-02-11T06:09:06.514Z,100.00
2024-02-11T06:11:55.439Z,100.00
2024-02-11T06:14:42.796Z,100.00
2024-02-11T06:17:31.379Z,100.00
2024-02-11T06:20:21.057Z,100.00
2024-02-11T06:23:09.028Z,100.00
2024-02-11T06:26:03.802Z,100.00
2024-02-11T06:28:52.289Z,100.00
2024-02-11T06:31:40.386Z,100.00
2024-02-11T06:34:28.185Z,100.00
2024-02-11T06:37:17.145Z,100.00
2024-02-11T06:40:05.924Z,100.00
2024-02-11T06:42:53.911Z,100.00
2024-02-11T06:45:47.792Z,100.00
2024-02-11T06:48:35.389Z,100.00
2024-02-11T06:51:23.931Z,100.00
2024-02-11T06:54:12.573Z,100.00
2024-02-11T06:57:01.157Z,100.00
2024-02-11T06:59:48.601Z,100.00
2024-02-11T07:02:36.415Z,100.00
2024-02-11T07:05:24.563Z,100.00
2024-02-11T07:08:12.779Z,100.00
2024-02-11T07:11:01.505Z,100.00
2024-02-11T07:13:49.745Z,100.00
2024-02-11T07:16:38.719Z,100.00
2024-02-11T07:19:26.293Z,100.00
2024-02-11T07:22:14.546Z,100.00
2024-02-11T07:25:03.048Z,100.00
2024-02-11T07:27:51.902Z,100.00
2024-02-11T07:30:41.279Z,100.00
2024-02-11T07:33:29.805Z,100.00
2024-02-11T07:36:18.764Z,100.00
2024-02-11T07:39:06.322Z,100.00
2024-02-11T07:41:55.282Z,100.00
2024-02-11T07:44:44.400Z,100.00
2024-02-11T07:47:31.792Z,100.00
2024-02-11T07:50:19.836Z,100.00
2024-02-11T07:53:07.728Z,100.00
2024-02-11T07:55:54.914Z,100.00
2024-02-11T07:58:42.916Z,100.00
2024-02-11T08:01:34.037Z,100.00
2024-02-11T08:04:21.891Z,100.00
2024-02-11T08:07:09.659Z,100.00
2024-02-11T08:09:56.909Z,100.00
2024-02-11T08:12:44.975Z,100.00
2024-02-11T08:15:32.276Z,100.00
2024-02-11T08:18:21.929Z,100.00
2024-02-11T08:21:10.332Z,100.00
2024-02-11T08:23:57.849Z,100.00
2024-02-11T08:26:45.224Z,100.00
2024-02-11T08:29:33.912Z,100.00
2024-02-11T08:32:21.759Z,100.00
2024-02-11T08:35:10.697Z,100.00
2024-02-11T08:37:59.571Z,100.00
2024-02-11T08:40:47.200Z,100.00
2024-02-11T08:43:34.641Z,100.00
2024-02-11T08:46:22.337Z,100.00
2024-02-11T08:49:10.226Z,100.00
2024-02-11T08:51:59.953Z,100.00
2024-02-11T08:54:48.350Z,100.00
2024-02-11T08:57:36.018Z,100.00
2024-02-11T09:00:26.118Z,100.00
2024-02-11T09:03:13.803Z,100.00
2024-02-11T09:06:02.187Z,100.00
2024-02-11T09:08:54.159Z,100.00
2024-02-11T09:11:41.709Z,100.00
2024-02-11T09:14:30.673Z,100.00
2024-02-11T09:17:17.933Z,100.00
2024-02-11T09:20:06.654Z,100.00
2024-02-11T09:22:53.954Z,100.00
2024-02-11T09:25:44.010Z,100.00
2024-02-11T09:28:31.414Z,100.00
2024-02-11T09:31:19.107Z,100.00
2024-02-11T09:34:07.084Z,100.00
2024-02-11T09:36:54.543Z,100.00
2024-02-11T09:39:44.029Z,100.00
2024-02-11T09:42:32.630Z,100.00
2024-02-11T09:45:23.798Z,100.00
2024-02-11T09:48:13.166Z,100.00
2024-02-11T09:51:02.466Z,100.00
2024-02-11T09:53:56.086Z,100.00
2024-02-11T09:56:43.585Z,100.00
2024-02-11T09:59:32.755Z,100.00
2024-02-11T10:02:20.809Z,100.00
2024-02-11T10:05:13.730Z,100.00
2024-02-11T10:08:08.088Z,100.00
2024-02-11T10:10:56.447Z,100.00
2024-02-11T10:13:46.089Z,100.00
2024-02-11T10:16:36.082Z,100.00
2024-02-11T10:19:23.539Z,100.00
2024-02-11T10:22:19.924Z,100.00
2024-02-11T10:25:17.930Z,100.00
2024-02-11T10:28:07.610Z,100.00
2024-02-11T10:30:56.706Z,100.00
2024-02-11T10:33:45.724Z,100.00
2024-02-11T10:36:36.711Z,100.00
2024-02-11T10:39:25.531Z,100.00
2024-02-11T10:42:14.691Z,100.00
2024-02-11T10:45:02.832Z,100.00
2024-02-11T10:47:50.209Z,100.00
2024-02-11T10:50:38.933Z,100.00
2024-02-11T10:53:34.159Z,100.00
2024-02-11T10:56:22.624Z,100.00
2024-02-11T10:59:14.938Z,100.00
2024-02-11T11:02:02.477Z,100.00
2024-02-11T11:04:51.936Z,100.00
2024-02-11T11:07:41.852Z,100.00
2024-02-11T11:10:36.315Z,100.00
2024-02-11T11:13:26.276Z,100.00
2024-02-11T11:16:14.051Z,100.00
2024-02-11T11:19:03.786Z,100.00
2024-02-11T11:21:52.193Z,100.00
2024-02-11T11:24:40.821Z,100.00
2024-02-11T11:27:28.637Z,100.00
2024-02-11T11:30:15.955Z,100.00
2024-02-11T11:33:05.381Z,100.00
2024-02-11T11:35:57.946Z,100.00
2024-02-11T11:38:46.066Z,100.00
2024-02-11T11:41:34.950Z,100.00
2024-02-11T11:44:22.797Z,100.00
2024-02-11T11:47:10.264Z,100.00
2024-02-11T11:49:58.451Z,100.00
2024-02-11T11:52:47.363Z,100.00
2024-02-11T11:55:35.125Z,100.00
2024-02-11T11:58:25.240Z,100.00
2024-02-11T12:01:12.740Z,100.00
2024-02-11T12:04:00.537Z,100.00
2024-02-11T12:06:48.563Z,100.00
2024-02-11T12:09:36.558Z,100.00
2024-02-11T12:12:23.845Z,100.00
2024-02-11T12:15:12.720Z,100.00
2024-02-11T12:18:00.836Z,100.00
2024-02-11T12:20:49.426Z,100.00
2024-02-11T12:23:37.085Z,100.00
2024-02-11T12:26:28.320Z,100.00
2024-02-11T12:29:24.489Z,100.00
2024-02-11T12:32:13.934Z,100.00
2024-02-11T12:35:02.023Z,100.00
2024-02-11T12:37:49.758Z,100.00
2024-02-11T12:40:38.519Z,100.00
2024-02-11T12:43:27.023Z,100.00
2024-02-11T12:46:14.832Z,100.00
2024-02-11T12:49:03.856Z,100.00
2024-02-11T12:51:51.713Z,100.00
2024-02-11T12:54:39.914Z,100.00
2024-02-11T12:57:27.888Z,100.00
2024-02-11T13:00:18.134Z,100.00
2024-02-11T13:03:06.052Z,100.00
2024-02-11T13:05:55.733Z,100.00
2024-02-11T13:08:43.523Z,100.00
2024-02-11T13:11:32.224Z,100.00
2024-02-11T13:14:19.933Z,100.00
2024-02-11T13:17:08.367Z,100.00
2024-02-11T13:19:55.534Z,100.00
2024-02-11T13:22:50.778Z,100.00
2024-02-11T13:25:39.121Z,100.00
2024-02-11T13:28:26.752Z,100.00
2024-02-11T13:31:23.738Z,100.00
2024-02-11T13:34:13.764Z,100.00
2024-02-11T13:37:00.984Z,100.00
2024-02-11T13:39:49.636Z,100.00
2024-02-11T13:42:37.333Z,100.00
2024-02-11T13:45:24.607Z,100.00
2024-02-11T13:48:12.637Z,100.00
2024-02-11T13:51:00.548Z,100.00
2024-02-11T13:53:48.515Z,100.00
2024-02-11T13:56:37.157Z,100.00
2024-02-11T13:59:24.738Z,100.00
2024-02-11T14:02:15.084Z,100.00
2024-02-11T14:05:05.107Z,100.00
2024-02-11T14:07:52.578Z,100.00
2024-02-11T14:10:41.464Z,100.00
2024-02-11T14:13:30.335Z,100.00
2024-02-11T14:16:18.559Z,100.00
2024-02-11T14:19:06.322Z,100.00
2024-02-11T14:21:54.003Z,100.00
2024-02-11T14:24:41.330Z,100.00
2024-02-11T14:27:28.716Z,100.00
2024-02-11T14:30:19.200Z,100.00
2024-02-11T14:33:08.344Z,100.00
2024-02-11T14:35:58.607Z,100.00
2024-02-11T14:38:47.174Z,100.00
2024-02-11T14:41:37.170Z,98.60
2024-02-11T14:44:24.649Z,99.60
2024-02-11T14:47:13.411Z,100.00
2024-02-11T14:50:01.550Z,99.20
2024-02-11T14:52:49.665Z,99.90
2024-02-11T14:55:37.109Z,97.90
2024-02-11T14:58:27.330Z,99.90
2024-02-11T15:01:16.198Z,99.50
2024-02-11T15:04:05.063Z,99.20
2024-02-11T15:06:53.057Z,98.80
2024-02-11T15:09:40.627Z,98.80
2024-02-11T15:12:28.655Z,98.40
2024-02-11T15:15:16.758Z,100.00
2024-02-11T15:18:04.751Z,98.80
2024-02-11T15:20:53.572Z,99.10
2024-02-11T15:23:40.974Z,98.60
2024-02-11T15:26:28.587Z,98.10
2024-02-11T15:29:16.589Z,97.00
2024-02-11T15:32:04.445Z,97.60
2024-02-11T15:34:51.690Z,97.30
2024-02-11T15:37:40.280Z,98.70
2024-02-11T15:40:27.704Z,97.10
2024-02-11T15:43:15.544Z,96.50
2024-02-11T15:46:03.566Z,97.30
2024-02-11T15:48:51.132Z,98.20
2024-02-11T15:51:41.573Z,96.70
2024-02-11T15:54:30.193Z,96.00
2024-02-11T15:57:17.754Z,95.20
2024-02-11T16:00:06.803Z,96.20
2024-02-11T16:02:54.854Z,97.70
2024-02-11T16:05:42.239Z,95.10
2024-02-11T16:08:31.399Z,95.90
2024-02-11T16:11:20.321Z,95.80
2024-02-11T16:14:08.731Z,96.10
2024-02-11T16:16:56.179Z,96.10
2024-02-11T16:19:43.503Z,95.50
2024-02-11T16:22:30.846Z,95.10
2024-02-11T16:25:18.472Z,95.30
2024-02-11T16:28:07.543Z,96.00
2024-02-11T16:30:55.511Z,95.80
2024-02-11T16:33:45.705Z,95.80
2024-02-11T16:36:33.046Z,94.90
2024-02-11T16:39:20.893Z,95.00
2024-02-11T16:42:08.988Z,93.70
2024-02-11T16:45:00.024Z,94.70
2024-02-11T16:47:49.431Z,94.70
2024-02-11T16:50:36.841Z,94.50
2024-02-11T16:53:24.115Z,94.10
2024-02-11T16:56:15.754Z,94.00
2024-02-11T16:59:02.978Z,95.00
2024-02-11T17:01:51.601Z,94.50
2024-02-11T17:04:39.270Z,94.70
2024-02-11T17:07:27.944Z,95.60
2024-02-11T17:10:15.492Z,95.70
2024-02-11T17:13:05.160Z,96.70
2024-02-11T17:15:52.932Z,96.90
2024-02-11T17:18:41.992Z,96.80
2024-02-11T17:21:29.572Z,97.10
2024-02-11T17:24:17.059Z,97.00
2024-02-11T17:27:06.141Z,96.10
2024-02-11T17:29:53.674Z,96.60
2024-02-11T17:32:48.335Z,96.50
2024-02-11T17:35:42.113Z,96.60
2024-02-11T17:38:30.192Z,95.50
2024-02-11T17:41:20.185Z,96.80
2024-02-11T17:44:09.774Z,95.80
2024-02-11T17:46:57.490Z,96.10
2024-02-11T17:49:44.680Z,95.80
2024-02-11T17:52:37.453Z,95.40
2024-02-11T17:55:25.388Z,96.00
2024-02-11T17:58:13.259Z,95.50
2024-02-11T18:01:00.687Z,95.30
2024-02-11T18:03:49.046Z,94.90
2024-02-11T18:06:38.983Z,95.80
2024-02-11T18:09:28.174Z,95.70
2024-02-11T18:12:17.203Z,95.80
2024-02-11T18:15:06.573Z,96.00
2024-02-11T18:17:55.079Z,95.50
2024-02-11T18:20:43.681Z,96.40
2024-02-11T18:23:33.094Z,96.10
2024-02-11T18:26:22.708Z,96.30
2024-02-11T18:29:11.591Z,96.20
2024-02-11T18:31:58.875Z,95.90
2024-02-11T18:34:48.196Z,95.70
2024-02-11T18:37:35.474Z,95.40
2024-02-11T18:40:22.909Z,94.80
2024-02-11T18:43:11.769Z,95.30
2024-02-11T18:46:00.357Z,95.40
2024-02-11T18:48:49.281Z,95.40
2024-02-11T18:51:37.930Z,95.10
2024-02-11T18:54:25.440Z,95.80
2024-02-11T18:57:14.327Z,96.60
2024-02-11T19:00:07.642Z,96.80
2024-02-11T19:02:55.807Z,97.10
2024-02-11T19:05:44.609Z,96.00
2024-02-11T19:08:35.392Z,95.80
2024-02-11T19:11:23.114Z,95.60
2024-02-11T19:14:10.283Z,95.10
2024-02-11T19:16:59.492Z,95.70
2024-02-11T19:19:47.072Z,95.50
2024-02-11T19:22:38.845Z,95.80
2024-02-11T19:25:26.178Z,95.50
2024-02-11T19:28:15.605Z,95.50
2024-02-11T19:31:04.173Z,95.50
2024-02-11T19:33:53.996Z,95.40
2024-02-11T19:36:43.078Z,95.50
2024-02-11T19:39:30.978Z,95.90
2024-02-11T19:42:20.747Z,96.20
2024-02-11T19:45:10.185Z,96.40
2024-02-11T19:47:57.942Z,96.50
2024-02-11T19:50:47.913Z,96.90
2024-02-11T19:53:39.231Z,96.30
2024-02-11T19:56:28.484Z,96.60
2024-02-11T19:59:16.477Z,96.60
2024-02-11T20:02:08.066Z,97.00
2024-02-11T20:04:56.696Z,97.00
2024-02-11T20:07:46.841Z,97.50
2024-02-11T20:10:35.645Z,97.80
2024-02-11T20:13:23.182Z,97.30
2024-02-11T20:16:13.830Z,97.00
2024-02-11T20:19:01.571Z,97.50
2024-02-11T20:21:51.162Z,97.20
2024-02-11T20:24:41.838Z,97.10
2024-02-11T20:27:30.220Z,97.00
2024-02-11T20:30:17.710Z,96.90
2024-02-11T20:33:09.851Z,97.10
2024-02-11T20:35:58.059Z,97.10
2024-02-11T20:38:47.136Z,97.70
2024-02-11T20:41:35.837Z,97.70
2024-02-11T20:44:27.305Z,97.90
2024-02-11T20:47:15.905Z,97.90
2024-02-11T20:50:09.128Z,97.00
2024-02-11T20:52:56.565Z,98.10
2024-02-11T20:55:45.099Z,97.70
2024-02-11T20:58:34.688Z,97.80
2024-02-11T21:01:23.825Z,97.90
2024-02-11T21:04:11.399Z,97.30
2024-02-11T21:06:58.889Z,97.60
2024-02-11T21:09:46.237Z,98.50
2024-02-11T21:12:34.991Z,97.90
2024-02-11T21:15:24.656Z,97.20
2024-02-11T21:18:13.041Z,98.30
2024-02-11T21:21:00.562Z,97.50
2024-02-11T21:23:48.198Z,97.20
2024-02-11T21:26:35.814Z,97.00
2024-02-11T21:29:23.698Z,96.80
2024-02-11T21:32:13.772Z,97.50
2024-02-11T21:35:04.602Z,97.20
2024-02-11T21:37:52.124Z,97.60
2024-02-11T21:40:41.500Z,98.00
2024-02-11T21:43:29.017Z,97.40
2024-02-11T21:46:17.620Z,97.00
2024-02-11T21:49:08.704Z,97.50
2024-02-11T21:51:56.473Z,96.80
2024-02-11T21:54:44.971Z,97.10
2024-02-11T21:57:32.620Z,97.30
2024-02-11T22:00:22.404Z,97.40
2024-02-11T22:03:10.021Z,97.00
2024-02-11T22:05:59.185Z,97.10
2024-02-11T22:08:47.171Z,97.30
2024-02-11T22:11:35.909Z,97.40
2024-02-11T22:14:23.434Z,97.20
2024-02-11T22:17:11.180Z,96.50
2024-02-11T22:20:02.665Z,97.20
2024-02-11T22:22:52.552Z,97.30
2024-02-11T22:25:40.561Z,96.80
2024-02-11T22:28:28.249Z,96.80
2024-02-11T22:31:16.089Z,96.80
2024-02-11T22:34:04.013Z,97.00
2024-02-11T22:36:51.627Z,96.80
2024-02-11T22:39:40.524Z,97.00
2024-02-11T22:42:28.477Z,96.60
2024-02-11T22:45:18.327Z,97.00
2024-02-11T22:48:07.163Z,96.10
2024-02-11T22:50:55.573Z,96.10
2024-02-11T22:53:43.243Z,95.90
2024-02-11T22:56:32.317Z,96.00
2024-02-11T22:59:19.827Z,96.20
2024-02-11T23:02:07.664Z,96.20
2024-02-11T23:04:55.016Z,96.10
2024-02-11T23:07:43.792Z,96.50
2024-02-11T23:10:32.346Z,96.40
2024-02-11T23:13:21.548Z,96.70
2024-02-11T23:16:11.326Z,96.60
2024-02-11T23:18:58.836Z,97.10
2024-02-11T23:21:46.596Z,97.00
2024-02-11T23:24:36.285Z,97.20
2024-02-11T23:27:23.674Z,97.40
2024-02-11T23:30:15.040Z,97.50
2024-02-11T23:33:03.142Z,97.30
2024-02-11T23:35:51.381Z,97.20
2024-02-11T23:38:39.116Z,97.70
2024-02-11T23:41:27.040Z,97.70
2024-02-11T23:44:18.761Z,97.70
2024-02-11T23:47:10.842Z,98.50
2024-02-11T23:49:58.422Z,98.20
2024-02-11T23:52:49.282Z,98.40
2024-02-11T23:55:36.807Z,98.80
2024-02-11T23:58:24.677Z,98.40
